createdAt,value
2022-11-27T00:00:31.654Z,70.77
2022-11-27T00:02:40.453Z,70.83
2022-11-27T00:04:43.437Z,70.24
2022-11-27T00:06:46.100Z,69.64
2022-11-27T00:08:49.573Z,69.61
2022-11-27T00:10:52.646Z,69.49
2022-11-27T00:12:55.270Z,69.86
2022-11-27T00:14:57.871Z,69.45
2022-11-27T00:17:01.014Z,69.48
2022-11-27T00:19:05.280Z,69.70
2022-11-27T00:21:09.196Z,70.33
2022-11-27T00:23:11.996Z,70.37
2022-11-27T00:25:14.723Z,70.71
2022-11-27T00:27:17.322Z,70.74
2022-11-27T00:29:19.891Z,70.38
2022-11-27T00:31:23.776Z,70.24
2022-11-27T00:33:26.501Z,71.09
2022-11-27T00:35:30.403Z,71.21
2022-11-27T00:37:33.330Z,71.59
2022-11-27T00:39:35.961Z,71.48
2022-11-27T00:41:39.000Z,71.04
2022-11-27T00:43:45.612Z,71.22
2022-11-27T00:45:50.088Z,70.97
2022-11-27T00:47:52.711Z,71.21
2022-11-27T00:49:55.302Z,71.67
2022-11-27T00:51:59.213Z,71.94
2022-11-27T00:54:02.267Z,72.26
2022-11-27T00:56:05.500Z,72.98
2022-11-27T00:58:08.123Z,73.52
2022-11-27T01:00:12.042Z,74.63
2022-11-27T01:02:14.723Z,74.72
2022-11-27T01:04:17.603Z,74.58
2022-11-27T01:06:23.155Z,75.74
2022-11-27T01:08:27.142Z,75.79
2022-11-27T01:10:29.821Z,76.01
2022-11-27T01:12:32.479Z,76.30
2022-11-27T01:14:35.359Z,75.97
2022-11-27T01:16:42.590Z,76.10
2022-11-27T01:18:47.892Z,75.95
2022-11-27T01:20:53.506Z,76.88
2022-11-27T01:22:56.118Z,76.66
2022-11-27T01:25:00.129Z,76.39
2022-11-27T01:27:02.738Z,76.63
2022-11-27T01:29:05.376Z,76.92
2022-11-27T01:31:09.661Z,76.69
2022-11-27T01:33:12.662Z,76.32
2022-11-27T01:35:15.384Z,76.14
2022-11-27T01:37:18.081Z,76.34
2022-11-27T01:39:24.058Z,76.09
2022-11-27T01:41:31.083Z,76.31
2022-11-27T01:43:39.286Z,76.41
2022-11-27T01:45:42.203Z,76.61
2022-11-27T01:47:49.121Z,76.39
2022-11-27T01:49:55.293Z,76.18
2022-11-27T01:52:03.311Z,76.14
2022-11-27T01:54:06.300Z,76.83
2022-11-27T01:56:09.616Z,76.72
2022-11-27T01:58:16.069Z,77.18
2022-11-27T02:02:23.512Z,77.90
2022-11-27T02:04:26.162Z,78.51
2022-11-27T02:06:29.312Z,78.80
2022-11-27T02:08:32.294Z,78.63
2022-11-27T02:10:44.313Z,78.65
2022-11-27T02:12:55.708Z,78.83
2022-11-27T02:15:09.831Z,78.57
2022-11-27T02:17:18.167Z,78.59
2022-11-27T02:19:35.456Z,78.69
2022-11-27T02:21:45.526Z,79.82
2022-11-27T02:24:32.375Z,79.58
2022-11-27T02:27:25.829Z,80.07
2022-11-27T02:29:32.443Z,80.01
2022-11-27T02:31:41.717Z,79.94
2022-11-27T02:33:50.539Z,79.71
2022-11-27T02:35:59.883Z,79.47
2022-11-27T02:38:09.630Z,80.27
2022-11-27T02:40:16.588Z,80.09
2022-11-27T02:42:21.949Z,80.50
2022-11-27T02:44:26.867Z,80.04
2022-11-27T02:46:31.070Z,80.17
2022-11-27T02:48:38.456Z,81.50
2022-11-27T02:50:44.610Z,81.08
2022-11-27T02:52:50.023Z,81.61
2022-11-27T02:54:56.461Z,82.16
2022-11-27T02:57:01.845Z,82.36
2022-11-27T02:59:08.850Z,81.98
2022-11-27T03:01:13.270Z,81.81
2022-11-27T03:03:20.757Z,81.35
2022-11-27T03:05:27.214Z,82.16
2022-11-27T03:07:38.404Z,81.72
2022-11-27T03:09:45.031Z,81.81
2022-11-27T03:11:49.230Z,81.65
2022-11-27T03:13:55.808Z,81.43
2022-11-27T03:16:10.164Z,81.32
2022-11-27T03:18:23.048Z,79.53
2022-11-27T03:20:28.874Z,79.47
2022-11-27T03:22:31.722Z,80.73
2022-11-27T03:24:36.393Z,81.54
2022-11-27T03:26:40.200Z,81.21
2022-11-27T03:28:46.542Z,81.31
2022-11-27T03:30:49.487Z,81.00
2022-11-27T03:32:52.462Z,81.19
2022-11-27T03:34:57.102Z,81.51
2022-11-27T03:36:59.759Z,80.08
2022-11-27T03:39:02.803Z,80.74
2022-11-27T03:41:12.968Z,80.74
2022-11-27T03:43:22.752Z,80.76
2022-11-27T03:45:33.088Z,81.51
2022-11-27T03:47:47.521Z,81.09
2022-11-27T03:50:06.897Z,80.46
2022-11-27T03:52:14.769Z,81.18
2022-11-27T03:54:26.704Z,81.19
2022-11-27T03:56:37.327Z,81.18
2022-11-27T03:58:44.537Z,81.30
2022-11-27T04:00:49.883Z,80.54
2022-11-27T04:02:54.579Z,80.88
2022-11-27T04:04:57.150Z,80.35
2022-11-27T04:07:01.163Z,80.34
2022-11-27T04:09:04.426Z,80.85
2022-11-27T04:11:07.279Z,80.07
2022-11-27T04:13:09.877Z,79.12
2022-11-27T04:15:12.922Z,80.18
2022-11-27T04:17:15.540Z,80.43
2022-11-27T04:19:18.127Z,80.65
2022-11-27T04:21:20.792Z,80.81
2022-11-27T04:23:24.826Z,80.21
2022-11-27T04:25:27.954Z,80.17
2022-11-27T04:27:30.577Z,79.26
2022-11-27T04:29:33.283Z,80.16
2022-11-27T04:31:35.936Z,80.58
2022-11-27T04:33:38.745Z,79.66
2022-11-27T04:35:41.415Z,79.59
2022-11-27T04:37:44.011Z,79.66
2022-11-27T04:39:47.980Z,80.49
2022-11-27T04:41:50.921Z,80.51
2022-11-27T04:43:53.539Z,80.86
2022-11-27T04:45:56.201Z,80.29
2022-11-27T04:47:58.770Z,79.69
2022-11-27T04:50:01.551Z,79.92
2022-11-27T04:52:04.630Z,79.88
2022-11-27T04:54:07.380Z,80.58
2022-11-27T04:56:13.577Z,80.03
2022-11-27T04:58:16.171Z,79.96
2022-11-27T05:00:19.980Z,79.63
2022-11-27T05:02:22.690Z,79.47
2022-11-27T05:04:25.487Z,80.12
2022-11-27T05:06:28.193Z,78.44
2022-11-27T05:08:32.881Z,79.41
2022-11-27T05:10:35.533Z,79.85
2022-11-27T05:12:39.547Z,79.99
2022-11-27T05:14:42.394Z,79.58
2022-11-27T05:16:47.290Z,79.49
2022-11-27T05:18:49.858Z,80.34
2022-11-27T05:20:57.250Z,80.48
2022-11-27T05:22:59.826Z,80.24
2022-11-27T05:25:02.510Z,79.81
2022-11-27T05:27:05.439Z,78.53
2022-11-27T05:29:11.038Z,78.77
2022-11-27T05:31:13.719Z,78.17
2022-11-27T05:33:17.887Z,78.86
2022-11-27T05:35:20.484Z,78.68
2022-11-27T05:37:23.141Z,78.77
2022-11-27T05:39:25.976Z,76.47
2022-11-27T05:41:28.977Z,78.12
2022-11-27T05:43:31.576Z,78.36
2022-11-27T05:45:35.557Z,77.57
2022-11-27T05:47:38.157Z,77.72
2022-11-27T05:49:40.744Z,77.42
2022-11-27T05:51:49.391Z,77.63
2022-11-27T05:53:53.540Z,76.70
2022-11-27T05:55:56.582Z,77.02
2022-11-27T05:57:59.225Z,77.41
2022-11-27T06:00:02.361Z,78.32
2022-11-27T06:02:06.401Z,79.17
2022-11-27T06:04:09.052Z,78.68
2022-11-27T06:06:14.917Z,78.54
2022-11-27T06:08:17.599Z,77.02
2022-11-27T06:10:20.248Z,78.38
2022-11-27T06:12:22.889Z,78.41
2022-11-27T06:14:25.631Z,78.72
2022-11-27T06:16:28.320Z,78.49
2022-11-27T06:18:32.374Z,78.95
2022-11-27T06:20:38.451Z,78.46
2022-11-27T06:22:43.739Z,78.63
2022-11-27T06:24:46.397Z,78.18
2022-11-27T06:26:49.088Z,77.72
2022-11-27T06:28:52.257Z,77.38
2022-11-27T06:30:54.869Z,77.35
2022-11-27T06:32:57.644Z,76.49
2022-11-27T06:35:01.659Z,76.95
2022-11-27T06:37:05.415Z,76.41
2022-11-27T06:39:12.234Z,76.78
2022-11-27T06:41:17.011Z,76.34
2022-11-27T06:43:19.605Z,75.95
2022-11-27T06:45:22.274Z,75.23
2022-11-27T06:47:25.061Z,74.82
2022-11-27T06:49:27.711Z,74.81
2022-11-27T06:51:33.564Z,75.39
2022-11-27T06:53:38.140Z,75.24
2022-11-27T06:55:40.786Z,75.33
2022-11-27T06:57:43.377Z,74.38
2022-11-27T06:59:46.006Z,74.83
2022-11-27T07:01:48.839Z,74.64
2022-11-27T07:03:51.762Z,73.52
2022-11-27T07:05:54.540Z,74.32
2022-11-27T07:07:59.671Z,74.53
2022-11-27T07:10:02.374Z,74.82
2022-11-27T07:12:06.143Z,74.77
2022-11-27T07:14:08.775Z,74.59
2022-11-27T07:16:12.862Z,74.70
2022-11-27T07:18:15.546Z,74.78
2022-11-27T07:20:18.286Z,74.45
2022-11-27T07:22:20.874Z,74.32
2022-11-27T07:24:24.832Z,74.32
2022-11-27T07:26:29.275Z,74.10
2022-11-27T07:28:31.905Z,74.16
2022-11-27T07:30:34.565Z,74.34
2022-11-27T07:32:37.192Z,74.63
2022-11-27T07:34:40.088Z,73.89
2022-11-27T07:36:43.114Z,74.05
2022-11-27T07:38:46.527Z,73.70
2022-11-27T07:40:50.483Z,73.52
2022-11-27T07:42:54.387Z,74.15
2022-11-27T07:44:57.137Z,74.17
2022-11-27T07:46:59.894Z,74.68
2022-11-27T07:49:02.508Z,74.31
2022-11-27T07:51:06.802Z,74.58
2022-11-27T07:53:09.400Z,74.56
2022-11-27T07:55:12.040Z,75.06
2022-11-27T07:57:16.174Z,74.25
2022-11-27T07:59:18.775Z,74.26
2022-11-27T08:01:22.174Z,74.95
2022-11-27T08:03:25.251Z,74.63
2022-11-27T08:05:27.990Z,74.68
2022-11-27T08:07:31.421Z,74.40
2022-11-27T08:09:34.165Z,74.68
2022-11-27T08:11:36.820Z,74.82
2022-11-27T08:13:40.808Z,74.30
2022-11-27T08:15:43.602Z,74.18
2022-11-27T08:17:46.308Z,74.06
2022-11-27T08:19:48.949Z,74.40
2022-11-27T08:21:51.745Z,74.58
2022-11-27T08:23:54.749Z,74.15
2022-11-27T08:25:57.354Z,73.54
2022-11-27T08:27:59.948Z,74.37
2022-11-27T08:30:04.402Z,74.90
2022-11-27T08:32:07.443Z,74.90
2022-11-27T08:34:10.127Z,74.39
2022-11-27T08:36:17.814Z,75.15
2022-11-27T08:38:21.608Z,74.98
2022-11-27T08:40:24.242Z,75.72
2022-11-27T08:42:26.988Z,75.26
2022-11-27T08:44:29.620Z,75.49
2022-11-27T08:46:33.547Z,75.70
2022-11-27T08:48:36.516Z,76.23
2022-11-27T08:50:39.108Z,76.34
2022-11-27T08:52:41.737Z,77.25
2022-11-27T08:54:44.361Z,76.65
2022-11-27T08:56:47.005Z,76.08
2022-11-27T08:58:49.664Z,76.89
2022-11-27T09:00:52.407Z,76.33
2022-11-27T09:02:56.422Z,76.98
2022-11-27T09:04:59.007Z,77.31
2022-11-27T09:07:01.602Z,76.15
2022-11-27T09:09:06.859Z,76.36
2022-11-27T09:11:11.132Z,77.53
2022-11-27T09:13:13.779Z,77.33
2022-11-27T09:15:17.584Z,78.10
2022-11-27T09:17:20.193Z,78.30
2022-11-27T09:19:24.546Z,78.27
2022-11-27T09:21:30.278Z,76.93
2022-11-27T09:23:33.154Z,77.44
2022-11-27T09:25:35.793Z,77.43
2022-11-27T09:27:38.885Z,78.07
2022-11-27T09:29:41.499Z,78.19
2022-11-27T09:31:44.286Z,79.09
2022-11-27T09:33:47.145Z,79.15
2022-11-27T09:35:51.191Z,79.39
2022-11-27T09:37:53.889Z,78.94
2022-11-27T09:39:56.573Z,78.89
2022-11-27T09:42:00.694Z,78.64
2022-11-27T09:44:07.510Z,79.28
2022-11-27T09:46:17.812Z,79.56
2022-11-27T09:48:27.289Z,78.83
2022-11-27T09:50:32.951Z,79.67
2022-11-27T09:52:40.953Z,78.95
2022-11-27T09:54:52.350Z,79.65
2022-11-27T09:56:56.099Z,80.16
2022-11-27T09:59:00.537Z,80.04
2022-11-27T10:01:09.961Z,79.81
2022-11-27T10:03:14.911Z,80.29
2022-11-27T10:05:21.711Z,79.78
2022-11-27T10:07:34.928Z,80.44
2022-11-27T10:09:50.963Z,80.56
2022-11-27T10:12:02.859Z,80.11
2022-11-27T10:14:22.463Z,80.17
2022-11-27T10:16:31.972Z,79.46
2022-11-27T10:18:41.643Z,79.81
2022-11-27T10:20:49.726Z,79.92
2022-11-27T10:22:59.574Z,80.36
2022-11-27T10:25:16.937Z,80.15
2022-11-27T10:27:26.694Z,80.28
2022-11-27T10:29:37.535Z,79.99
2022-11-27T10:31:48.065Z,78.88
2022-11-27T10:33:54.479Z,79.60
2022-11-27T10:35:57.702Z,79.77
2022-11-27T10:38:06.966Z,79.72
2022-11-27T10:40:22.209Z,80.08
2022-11-27T10:42:29.767Z,80.79
2022-11-27T10:44:36.387Z,80.32
2022-11-27T10:46:40.934Z,80.31
2022-11-27T10:48:46.380Z,80.27
2022-11-27T10:50:49.040Z,80.22
2022-11-27T10:52:56.742Z,80.57
2022-11-27T10:55:03.788Z,80.78
2022-11-27T10:57:30.926Z,80.35
2022-11-27T10:59:36.710Z,80.11
2022-11-27T11:01:44.609Z,80.11
2022-11-27T11:03:47.722Z,79.90
2022-11-27T11:06:19.517Z,80.13
2022-11-27T11:08:21.792Z,79.79
2022-11-27T11:10:28.951Z,79.86
2022-11-27T11:12:33.215Z,80.01
2022-11-27T11:14:35.875Z,79.50
2022-11-27T11:16:43.540Z,79.51
2022-11-27T11:18:49.070Z,79.74
2022-11-27T11:20:54.717Z,79.53
2022-11-27T11:22:59.338Z,79.59
2022-11-27T11:25:02.815Z,79.63
2022-11-27T11:27:08.148Z,79.73
2022-11-27T11:29:26.696Z,79.69
2022-11-27T11:31:33.568Z,79.66
2022-11-27T11:33:48.421Z,79.78
2022-11-27T11:35:54.456Z,79.66
2022-11-27T11:37:58.808Z,79.70
2022-11-27T11:40:04.223Z,79.46
2022-11-27T11:42:11.411Z,79.50
2022-11-27T11:44:24.243Z,79.08
2022-11-27T11:46:30.007Z,79.03
2022-11-27T11:48:32.767Z,78.74
2022-11-27T11:50:41.997Z,78.88
2022-11-27T11:52:59.165Z,78.35
2022-11-27T11:55:07.790Z,78.14
2022-11-27T11:57:28.338Z,77.63
2022-11-27T11:59:42.139Z,77.42
2022-11-27T12:02:06.016Z,77.24
2022-11-27T12:04:24.838Z,76.98
2022-11-27T12:06:37.558Z,76.80
2022-11-27T12:08:55.442Z,76.76
2022-11-27T12:11:07.985Z,76.84
2022-11-27T12:13:23.655Z,76.88
2022-11-27T12:15:33.227Z,76.62
2022-11-27T12:17:53.146Z,76.28
2022-11-27T12:20:15.306Z,76.24
2022-11-27T12:22:27.291Z,76.04
2022-11-27T12:24:42.197Z,75.73
2022-11-27T12:26:59.135Z,75.39
2022-11-27T12:29:25.059Z,75.34
2022-11-27T12:31:56.300Z,75.31
2022-11-27T12:34:03.342Z,75.25
2022-11-27T12:36:17.130Z,75.10
2022-11-27T12:38:42.613Z,74.98
2022-11-27T12:41:00.351Z,74.94
2022-11-27T12:43:16.739Z,74.90
2022-11-27T12:45:23.425Z,74.79
2022-11-27T12:47:38.669Z,74.48
2022-11-27T12:49:45.710Z,74.29
2022-11-27T12:51:52.303Z,74.20
2022-11-27T12:54:00.413Z,73.76
2022-11-27T12:56:15.895Z,73.73
2022-11-27T12:58:27.050Z,73.17
2022-11-27T13:00:32.235Z,72.89
2022-11-27T13:02:41.890Z,72.53
2022-11-27T13:04:49.593Z,72.90
2022-11-27T13:06:59.531Z,72.86
2022-11-27T13:09:06.826Z,72.22
2022-11-27T13:11:14.250Z,72.46
2022-11-27T13:13:23.138Z,72.41
2022-11-27T13:15:28.882Z,72.96
2022-11-27T13:17:38.145Z,72.86
2022-11-27T13:19:45.002Z,72.91
2022-11-27T13:21:49.188Z,72.89
2022-11-27T13:23:52.548Z,72.76
2022-11-27T13:25:57.763Z,72.54
2022-11-27T13:28:03.129Z,72.52
2022-11-27T13:30:08.707Z,72.62
2022-11-27T13:32:21.141Z,72.67
2022-11-27T13:34:28.953Z,72.55
2022-11-27T13:36:39.056Z,72.24
2022-11-27T13:38:45.137Z,72.53
2022-11-27T13:40:50.786Z,72.47
2022-11-27T13:42:56.759Z,72.36
2022-11-27T13:45:01.778Z,72.18
2022-11-27T13:47:10.325Z,70.58
2022-11-27T13:49:24.615Z,70.14
2022-11-27T13:51:31.320Z,69.92
2022-11-27T13:53:37.053Z,68.98
2022-11-27T13:55:41.686Z,69.02
2022-11-27T13:57:53.285Z,68.53
2022-11-27T13:59:59.516Z,68.80
2022-11-27T14:02:05.153Z,68.29
2022-11-27T14:04:10.061Z,68.48
2022-11-27T14:06:19.308Z,68.33
2022-11-27T14:08:27.262Z,68.06
2022-11-27T14:10:33.303Z,67.27
2022-11-27T14:12:37.452Z,66.93
2022-11-27T14:14:43.078Z,67.16
2022-11-27T14:16:55.933Z,67.09
2022-11-27T14:19:01.102Z,66.90
2022-11-27T14:21:05.429Z,67.08
2022-11-27T14:23:12.884Z,67.57
2022-11-27T14:25:21.981Z,67.71
2022-11-27T14:27:27.804Z,67.13
2022-11-27T14:29:31.605Z,66.89
2022-11-27T14:31:36.564Z,66.89
2022-11-27T14:34:07.516Z,67.19
2022-11-27T14:36:08.598Z,67.23
2022-11-27T14:38:12.346Z,67.26
2022-11-27T14:40:16.341Z,67.54
2022-11-27T14:42:28.127Z,67.55
2022-11-27T14:44:32.204Z,67.74
2022-11-27T14:46:37.167Z,67.85
2022-11-27T14:48:45.207Z,67.95
2022-11-27T14:50:49.205Z,68.03
2022-11-27T14:52:54.838Z,68.33
2022-11-27T14:54:58.727Z,68.46
2022-11-27T14:57:01.506Z,68.54
2022-11-27T14:59:06.712Z,69.06
2022-11-27T15:01:09.431Z,69.24
2022-11-27T15:03:12.424Z,69.56
2022-11-27T15:05:21.592Z,69.78
2022-11-27T15:07:29.281Z,70.05
2022-11-27T15:09:35.137Z,70.16
2022-11-27T15:11:55.241Z,70.16
2022-11-27T15:14:02.054Z,69.91
2022-11-27T15:16:15.043Z,70.15
2022-11-27T15:18:23.762Z,70.15
2022-11-27T15:20:29.775Z,70.29
2022-11-27T15:22:33.529Z,70.49
2022-11-27T15:24:37.785Z,70.38
2022-11-27T15:26:40.965Z,70.24
2022-11-27T15:28:44.446Z,69.31
2022-11-27T15:30:47.232Z,69.01
2022-11-27T15:32:52.962Z,68.47
2022-11-27T15:34:55.906Z,66.72
2022-11-27T15:36:59.705Z,65.57
2022-11-27T15:39:16.013Z,65.71
2022-11-27T15:41:26.620Z,65.54
2022-11-27T15:43:29.330Z,64.31
2022-11-27T15:45:33.761Z,62.48
2022-11-27T15:47:38.547Z,62.49
2022-11-27T15:49:42.922Z,62.16
2022-11-27T15:51:45.628Z,61.75
2022-11-27T15:53:48.630Z,61.88
2022-11-27T15:55:51.258Z,62.50
2022-11-27T15:57:53.861Z,62.15
2022-11-27T15:59:56.457Z,62.37
2022-11-27T16:01:59.126Z,62.82
2022-11-27T16:04:01.780Z,62.86
2022-11-27T16:06:07.481Z,62.67
2022-11-27T16:08:11.705Z,62.74
2022-11-27T16:10:14.535Z,62.25
2022-11-27T16:12:17.184Z,62.96
2022-11-27T16:14:19.797Z,62.75
2022-11-27T16:16:22.872Z,63.26
2022-11-27T16:18:25.477Z,63.29
2022-11-27T16:20:28.335Z,63.41
2022-11-27T16:22:32.350Z,63.20
2022-11-27T16:24:35.005Z,62.84
2022-11-27T16:26:38.029Z,63.37
2022-11-27T16:28:40.827Z,63.81
2022-11-27T16:30:43.437Z,64.29
2022-11-27T16:32:46.055Z,64.26
2022-11-27T16:34:51.029Z,64.26
2022-11-27T16:36:53.596Z,64.45
2022-11-27T16:38:57.715Z,64.07
2022-11-27T16:41:01.821Z,62.89
2022-11-27T16:43:05.335Z,63.21
2022-11-27T16:45:09.217Z,63.56
2022-11-27T16:47:11.984Z,63.52
2022-11-27T16:49:14.658Z,63.21
2022-11-27T16:51:19.020Z,63.38
2022-11-27T16:53:21.611Z,63.06
2022-11-27T16:55:26.193Z,63.68
2022-11-27T16:57:28.787Z,63.54
2022-11-27T16:59:31.569Z,63.65
2022-11-27T17:01:36.149Z,63.69
2022-11-27T17:03:38.947Z,63.95
2022-11-27T17:05:41.645Z,63.87
2022-11-27T17:07:44.392Z,63.15
2022-11-27T17:09:47.198Z,63.60
2022-11-27T17:11:52.275Z,64.00
2022-11-27T17:13:58.439Z,63.46
2022-11-27T17:16:02.443Z,63.00
2022-11-27T17:18:05.180Z,63.42
2022-11-27T17:20:09.664Z,63.51
2022-11-27T17:22:12.625Z,63.60
2022-11-27T17:24:16.933Z,63.76
2022-11-27T17:26:22.716Z,63.91
2022-11-27T17:28:27.814Z,63.89
2022-11-27T17:30:39.016Z,64.19
2022-11-27T17:32:42.039Z,64.04
2022-11-27T17:34:45.255Z,63.91
2022-11-27T17:36:53.395Z,63.61
2022-11-27T17:38:56.095Z,63.80
2022-11-27T17:41:01.467Z,63.45
2022-11-27T17:43:04.078Z,62.69
2022-11-27T17:45:09.166Z,63.17
2022-11-27T17:47:11.787Z,63.46
2022-11-27T17:49:14.480Z,63.28
2022-11-27T17:51:17.863Z,63.39
2022-11-27T17:53:20.744Z,62.81
2022-11-27T17:55:23.380Z,63.00
2022-11-27T17:57:26.044Z,62.72
2022-11-27T17:59:31.298Z,62.80
2022-11-27T18:01:35.288Z,63.04
2022-11-27T18:03:38.003Z,63.34
2022-11-27T18:05:40.849Z,63.83
2022-11-27T18:07:43.579Z,63.94
2022-11-27T18:09:47.616Z,64.08
2022-11-27T18:11:50.273Z,64.32
2022-11-27T18:13:52.890Z,64.46
2022-11-27T18:15:55.450Z,64.70
2022-11-27T18:17:59.448Z,64.50
2022-11-27T18:20:03.539Z,64.63
2022-11-27T18:22:08.198Z,64.96
2022-11-27T18:24:26.125Z,64.47
2022-11-27T18:26:52.648Z,64.76
2022-11-27T18:28:55.625Z,64.63
2022-11-27T18:30:58.214Z,64.96
2022-11-27T18:33:03.500Z,64.96
2022-11-27T18:35:07.409Z,65.05
2022-11-27T18:37:10.824Z,64.96
2022-11-27T18:39:13.784Z,65.32
2022-11-27T18:41:18.747Z,65.37
2022-11-27T18:43:21.766Z,65.31
2022-11-27T18:45:33.425Z,65.41
2022-11-27T18:47:38.398Z,65.53
2022-11-27T18:49:42.990Z,65.67
2022-11-27T18:51:45.987Z,65.58
2022-11-27T18:53:49.192Z,65.66
2022-11-27T18:55:52.958Z,65.56
2022-11-27T18:57:55.694Z,65.88
2022-11-27T18:59:58.329Z,65.98
2022-11-27T19:02:01.210Z,65.60
2022-11-27T19:04:04.587Z,65.04
2022-11-27T19:06:10.862Z,64.63
2022-11-27T19:08:13.646Z,64.57
2022-11-27T19:10:16.484Z,63.70
2022-11-27T19:12:19.544Z,62.62
2022-11-27T19:14:22.123Z,62.93
2022-11-27T19:16:26.315Z,61.70
2022-11-27T19:18:29.006Z,62.35
2022-11-27T19:20:33.055Z,62.34
2022-11-27T19:22:38.697Z,61.92
2022-11-27T19:24:41.456Z,62.19
2022-11-27T19:26:44.131Z,62.17
2022-11-27T19:28:49.883Z,62.15
2022-11-27T19:30:52.577Z,62.30
2022-11-27T19:32:55.287Z,62.48
2022-11-27T19:34:58.681Z,62.53
2022-11-27T19:37:02.593Z,62.74
2022-11-27T19:39:09.117Z,63.07
2022-11-27T19:41:13.034Z,63.36
2022-11-27T19:43:15.656Z,63.53
2022-11-27T19:45:18.492Z,63.63
2022-11-27T19:47:21.104Z,63.75
2022-11-27T19:49:23.742Z,63.82
2022-11-27T19:51:27.644Z,64.20
2022-11-27T19:53:30.234Z,64.59
2022-11-27T19:55:34.762Z,64.75
2022-11-27T19:57:38.332Z,64.71
2022-11-27T19:59:41.643Z,64.89
2022-11-27T20:01:45.309Z,65.08
2022-11-27T20:03:48.142Z,65.18
2022-11-27T20:05:53.388Z,65.27
2022-11-27T20:07:59.542Z,65.29
2022-11-27T20:10:02.288Z,65.26
2022-11-27T20:12:06.892Z,65.48
2022-11-27T20:14:09.595Z,65.58
2022-11-27T20:16:14.676Z,65.85
2022-11-27T20:18:17.307Z,65.99
2022-11-27T20:20:21.529Z,66.04
2022-11-27T20:22:24.242Z,65.91
2022-11-27T20:24:27.014Z,65.13
2022-11-27T20:26:30.506Z,65.17
2022-11-27T20:28:35.888Z,64.87
2022-11-27T20:30:41.143Z,64.36
2022-11-27T20:32:43.992Z,63.80
2022-11-27T20:34:46.834Z,63.45
2022-11-27T20:36:49.817Z,63.57
2022-11-27T20:38:53.874Z,63.62
2022-11-27T20:40:56.561Z,63.67
2022-11-27T20:42:59.587Z,64.07
2022-11-27T20:45:05.159Z,64.26
2022-11-27T20:47:07.801Z,63.63
2022-11-27T20:49:10.470Z,63.71
2022-11-27T20:51:14.898Z,63.76
2022-11-27T20:53:17.608Z,64.33
2022-11-27T20:55:20.286Z,63.60
2022-11-27T20:57:22.924Z,63.73
2022-11-27T20:59:25.505Z,63.77
2022-11-27T21:01:31.805Z,63.75
2022-11-27T21:03:34.783Z,63.71
2022-11-27T21:05:37.456Z,63.86
2022-11-27T21:07:41.354Z,64.24
2022-11-27T21:09:44.207Z,63.99
2022-11-27T21:11:48.074Z,64.12
2022-11-27T21:13:50.706Z,64.19
2022-11-27T21:15:54.385Z,64.62
2022-11-27T21:17:58.342Z,64.62
2022-11-27T21:20:01.535Z,64.89
2022-11-27T21:22:04.200Z,65.00
2022-11-27T21:24:08.121Z,65.12
2022-11-27T21:26:11.744Z,65.39
2022-11-27T21:28:14.447Z,65.42
2022-11-27T21:30:19.088Z,65.80
2022-11-27T21:32:22.735Z,65.74
2022-11-27T21:34:26.989Z,66.21
2022-11-27T21:36:31.690Z,66.33
2022-11-27T21:38:34.322Z,66.52
2022-11-27T21:40:37.734Z,67.07
2022-11-27T21:42:44.391Z,67.02
2022-11-27T21:44:47.453Z,67.12
2022-11-27T21:46:51.552Z,67.38
2022-11-27T21:48:56.580Z,67.54
2022-11-27T21:51:02.751Z,67.67
2022-11-27T21:53:05.395Z,67.86
2022-11-27T21:55:12.046Z,68.05
2022-11-27T21:57:14.987Z,68.48
2022-11-27T21:59:17.577Z,68.36
2022-11-27T22:01:21.956Z,68.65
2022-11-27T22:03:24.901Z,68.60
2022-11-27T22:05:27.655Z,68.51
2022-11-27T22:07:31.715Z,68.60
2022-11-27T22:09:34.642Z,68.73
2022-11-27T22:11:37.712Z,68.76
2022-11-27T22:13:41.150Z,68.99
2022-11-27T22:15:43.768Z,69.21
2022-11-27T22:17:46.380Z,69.26
2022-11-27T22:19:49.022Z,69.16
2022-11-27T22:21:51.666Z,69.29
2022-11-27T22:23:55.691Z,69.52
2022-11-27T22:26:01.263Z,69.53
2022-11-27T22:28:04.027Z,69.43
2022-11-27T22:30:08.057Z,69.66
2022-11-27T22:32:10.680Z,69.90
2022-11-27T22:34:13.267Z,69.90
2022-11-27T22:36:17.578Z,69.82
2022-11-27T22:38:20.834Z,70.08
2022-11-27T22:40:24.773Z,70.16
2022-11-27T22:42:27.434Z,70.30
2022-11-27T22:44:30.190Z,70.26
2022-11-27T22:46:35.482Z,70.46
2022-11-27T22:48:38.402Z,70.55
2022-11-27T22:50:41.128Z,70.64
2022-11-27T22:52:43.758Z,70.82
2022-11-27T22:54:46.381Z,70.78
2022-11-27T22:56:50.321Z,70.84
2022-11-27T22:59:11.380Z,70.59
2022-11-27T23:01:18.001Z,71.02
2022-11-27T23:03:20.619Z,71.03
2022-11-27T23:05:23.280Z,70.79
2022-11-27T23:07:25.946Z,70.82
2022-11-27T23:09:28.649Z,70.80
2022-11-27T23:11:31.687Z,70.78
2022-11-27T23:13:35.960Z,71.12
2022-11-27T23:15:38.581Z,71.08
2022-11-27T23:17:41.161Z,71.22
2022-11-27T23:19:43.757Z,71.16
2022-11-27T23:21:46.387Z,71.45
2022-11-27T23:23:49.265Z,71.71
2022-11-27T23:25:51.901Z,71.24
2022-11-27T23:27:54.497Z,71.58
2022-11-27T23:29:58.719Z,71.91
2022-11-27T23:32:01.563Z,71.69
2022-11-27T23:34:07.217Z,71.47
2022-11-27T23:36:11.228Z,71.94
2022-11-27T23:38:13.876Z,71.85
2022-11-27T23:40:16.610Z,72.10
2022-11-27T23:42:19.191Z,72.04
2022-11-27T23:44:21.911Z,72.11
2022-11-27T23:46:28.728Z,72.04
2022-11-27T23:48:31.345Z,72.00
2022-11-27T23:50:33.971Z,71.91
2022-11-27T23:52:36.633Z,72.15
2022-11-27T23:54:39.430Z,72.13
2022-11-27T23:56:43.054Z,71.95
2022-11-27T23:58:47.581Z,72.12
